createdAt,value
2022-12-26T00:04:55.757Z,0.77
2022-12-26T00:10:23.957Z,1.33
2022-12-26T00:15:42.952Z,1.38
2022-12-26T00:20:46.004Z,1.73
2022-12-26T00:25:54.785Z,1.48
2022-12-26T00:31:07.756Z,1.42
2022-12-26T00:36:23.427Z,1.65
2022-12-26T00:41:40.492Z,1.13
2022-12-26T00:46:57.247Z,0.57
2022-12-26T00:52:20.663Z,1.05
2022-12-26T00:57:37.649Z,0.90
2022-12-26T01:02:44.529Z,1.23
2022-12-26T01:08:20.089Z,1.58
2022-12-26T01:13:18.787Z,0.63
2022-12-26T01:18:34.773Z,1.63
2022-12-26T01:23:55.514Z,0.60
2022-12-26T01:29:23.344Z,1.27
2022-12-26T01:40:18.964Z,0.70
2022-12-26T01:45:37.574Z,1.30
2022-12-26T01:50:47.641Z,1.00
2022-12-26T01:56:16.217Z,0.50
2022-12-26T02:06:40.038Z,1.40
2022-12-26T02:12:36.040Z,0.40
2022-12-26T02:17:35.436Z,1.15
2022-12-26T02:22:58.448Z,0.82
2022-12-26T02:28:21.113Z,1.17
2022-12-26T02:33:54.650Z,0.45
2022-12-26T02:39:45.500Z,1.20
2022-12-26T02:44:58.952Z,0.93
2022-12-26T02:56:16.864Z,1.40
2022-12-26T03:01:55.786Z,0.90
2022-12-26T03:07:20.808Z,0.52
2022-12-26T03:12:49.072Z,0.80
2022-12-26T03:17:59.265Z,0.47
2022-12-26T03:23:07.539Z,0.90
2022-12-26T03:28:39.851Z,0.63
2022-12-26T03:34:01.852Z,0.90
2022-12-26T03:39:25.247Z,0.50
2022-12-26T03:44:53.974Z,0.40
2022-12-26T03:50:21.938Z,0.30
2022-12-26T03:55:55.667Z,0.47
2022-12-26T04:01:39.223Z,0.70
2022-12-26T04:07:07.767Z,0.80
2022-12-26T04:12:39.095Z,0.45
2022-12-26T04:18:03.169Z,0.38
2022-12-26T04:23:31.890Z,0.75
2022-12-26T04:29:00.714Z,0.52
2022-12-26T04:34:24.913Z,0.68
2022-12-26T04:39:49.826Z,0.88
2022-12-26T04:45:11.163Z,0.50
2022-12-26T04:50:20.333Z,0.30
2022-12-26T04:55:26.942Z,0.90
2022-12-26T05:00:40.696Z,0.90
2022-12-26T05:06:05.373Z,1.13
2022-12-26T05:11:14.310Z,1.23
2022-12-26T05:22:23.551Z,1.00
2022-12-26T05:27:46.393Z,1.00
2022-12-26T05:33:16.368Z,1.10
2022-12-26T05:38:37.208Z,1.73
2022-12-26T05:43:47.584Z,0.68
2022-12-26T05:49:02.130Z,1.10
2022-12-26T05:54:07.222Z,0.80
2022-12-26T05:59:24.835Z,0.63
2022-12-26T06:04:34.209Z,1.27
2022-12-26T06:09:40.717Z,0.60
2022-12-26T06:14:49.356Z,0.70
2022-12-26T06:19:59.050Z,0.90
2022-12-26T06:25:05.299Z,0.55
2022-12-26T06:30:24.584Z,1.30
2022-12-26T06:35:31.275Z,0.98
2022-12-26T06:40:44.652Z,1.10
2022-12-26T06:46:01.110Z,1.30
2022-12-26T06:51:08.684Z,1.20
2022-12-26T06:56:17.629Z,0.65
2022-12-26T07:01:26.043Z,0.98
2022-12-26T07:06:36.745Z,1.00
2022-12-26T07:11:51.175Z,1.10
2022-12-26T07:17:01.496Z,1.00
2022-12-26T07:22:15.655Z,0.40
2022-12-26T07:27:25.723Z,0.90
2022-12-26T07:32:37.381Z,0.90
2022-12-26T07:37:47.296Z,0.65
2022-12-26T07:43:08.407Z,0.98
2022-12-26T07:48:29.533Z,0.88
2022-12-26T07:53:40.113Z,1.40
2022-12-26T07:58:57.864Z,0.90
2022-12-26T08:04:14.296Z,0.80
2022-12-26T08:09:38.792Z,1.42
2022-12-26T08:20:37.792Z,1.10
2022-12-26T08:25:44.931Z,0.80
2022-12-26T08:30:50.612Z,1.15
2022-12-26T08:36:18.742Z,1.27
2022-12-26T08:41:23.077Z,0.95
2022-12-26T08:46:28.894Z,1.52
2022-12-26T08:51:44.075Z,1.35
2022-12-26T08:56:52.382Z,1.80
2022-12-26T09:02:18.070Z,1.20
2022-12-26T09:07:44.058Z,1.50
2022-12-26T09:13:09.928Z,1.60
2022-12-26T09:18:17.960Z,1.67
2022-12-26T09:23:26.738Z,1.80
2022-12-26T09:28:57.824Z,1.88
2022-12-26T09:34:04.126Z,1.13
2022-12-26T09:39:11.369Z,1.20
2022-12-26T09:44:34.232Z,1.50
2022-12-26T09:49:46.198Z,1.30
2022-12-26T09:54:57.874Z,1.40
2022-12-26T10:00:25.988Z,1.63
2022-12-26T10:05:35.756Z,1.80
2022-12-26T10:10:46.574Z,1.92
2022-12-26T10:16:00.861Z,1.45
2022-12-26T10:21:25.002Z,1.60
2022-12-26T10:26:43.035Z,2.00
2022-12-26T10:31:54.270Z,2.00
2022-12-26T10:37:31.707Z,1.90
2022-12-26T10:42:39.573Z,2.00
2022-12-26T10:47:58.434Z,1.75
2022-12-26T10:58:39.415Z,1.50
2022-12-26T11:04:14.206Z,1.02
2022-12-26T11:09:48.405Z,1.08
2022-12-26T11:14:59.985Z,0.93
2022-12-26T11:20:21.825Z,1.20
2022-12-26T11:25:39.773Z,0.90
2022-12-26T11:31:00.081Z,0.90
2022-12-26T11:36:29.720Z,1.33
2022-12-26T11:41:47.166Z,1.10
2022-12-26T11:47:02.881Z,0.70
2022-12-26T11:52:42.701Z,1.00
2022-12-26T11:58:06.513Z,1.17
2022-12-26T12:03:17.451Z,1.42
2022-12-26T12:08:38.380Z,1.05
2022-12-26T12:14:13.043Z,1.25
2022-12-26T12:19:34.723Z,1.40
2022-12-26T12:24:51.038Z,2.10
2022-12-26T12:30:23.745Z,1.15
2022-12-26T12:35:43.186Z,1.35
2022-12-26T12:41:15.071Z,2.47
2022-12-26T12:46:27.158Z,1.92
2022-12-26T12:51:45.028Z,1.55
2022-12-26T12:57:20.892Z,1.80
2022-12-26T13:02:39.066Z,1.70
2022-12-26T13:07:47.738Z,1.73
2022-12-26T13:12:54.964Z,1.20
2022-12-26T13:18:10.659Z,1.80
2022-12-26T13:23:38.191Z,2.35
2022-12-26T13:28:54.359Z,1.65
2022-12-26T13:34:17.979Z,2.05
2022-12-26T13:39:57.712Z,2.33
2022-12-26T13:45:19.755Z,2.55
2022-12-26T13:50:56.685Z,2.03
2022-12-26T13:56:10.871Z,2.00
2022-12-26T14:01:24.774Z,2.47
2022-12-26T14:06:50.432Z,3.33
2022-12-26T14:12:16.960Z,2.70
2022-12-26T14:17:42.598Z,2.28
2022-12-26T14:22:51.145Z,2.20
2022-12-26T14:28:04.496Z,2.28
2022-12-26T14:33:27.248Z,1.77
2022-12-26T14:38:37.844Z,2.45
2022-12-26T14:43:57.907Z,0.80
2022-12-26T14:49:21.205Z,1.38
2022-12-26T14:54:51.244Z,1.27
2022-12-26T15:00:17.768Z,1.60
2022-12-26T15:05:38.177Z,2.10
2022-12-26T15:11:10.969Z,1.58
2022-12-26T15:16:43.894Z,1.42
2022-12-26T15:22:15.799Z,1.08
2022-12-26T15:27:30.996Z,0.93
2022-12-26T15:32:44.588Z,1.65
2022-12-26T15:38:18.797Z,1.08
2022-12-26T15:43:44.153Z,1.33
2022-12-26T15:49:23.964Z,1.75
2022-12-26T15:54:44.573Z,1.27
2022-12-26T16:00:21.935Z,1.27
2022-12-26T16:05:53.403Z,1.45
2022-12-26T16:11:26.056Z,1.05
2022-12-26T16:16:40.263Z,0.68
2022-12-26T16:22:12.258Z,0.85
2022-12-26T16:27:37.990Z,0.75
2022-12-26T16:32:52.293Z,1.00
2022-12-26T16:38:05.292Z,0.77
2022-12-26T16:43:28.545Z,0.52
2022-12-26T16:49:04.181Z,0.90
2022-12-26T16:54:19.555Z,0.52
2022-12-26T16:59:27.338Z,0.77
2022-12-26T17:04:34.225Z,0.57
2022-12-26T17:09:45.773Z,0.60
2022-12-26T17:15:03.074Z,0.60
2022-12-26T17:20:28.647Z,1.00
2022-12-26T17:25:47.145Z,0.80
2022-12-26T17:30:56.965Z,0.70
2022-12-26T17:37:08.244Z,0.70
2022-12-26T17:47:10.710Z,0.75
2022-12-26T17:52:18.934Z,0.70
2022-12-26T17:57:31.042Z,1.55
2022-12-26T18:02:39.411Z,0.70
2022-12-26T18:07:47.901Z,0.90
2022-12-26T18:12:59.123Z,0.93
2022-12-26T18:18:06.277Z,1.35
2022-12-26T18:23:11.458Z,0.70
2022-12-26T18:28:23.723Z,1.23
2022-12-26T18:33:38.892Z,0.65
2022-12-26T18:38:51.232Z,0.55
2022-12-26T18:44:09.198Z,1.00
2022-12-26T18:49:18.433Z,1.70
2022-12-26T18:54:26.549Z,0.73
2022-12-26T18:59:35.383Z,1.35
2022-12-26T19:04:54.949Z,1.10
2022-12-26T19:10:22.746Z,1.10
2022-12-26T19:15:46.696Z,1.00
2022-12-26T19:20:56.423Z,0.43
2022-12-26T19:31:41.867Z,0.82
2022-12-26T19:42:21.534Z,0.70
2022-12-26T19:47:24.379Z,0.40
2022-12-26T19:52:27.029Z,0.70
2022-12-26T19:57:38.602Z,0.55
2022-12-26T20:02:45.755Z,1.05
2022-12-26T20:07:48.766Z,1.10
2022-12-26T20:12:53.456Z,0.77
2022-12-26T20:22:58.878Z,0.40
2022-12-26T20:28:02.823Z,0.50
2022-12-26T20:33:05.467Z,0.40
2022-12-26T20:38:08.361Z,0.40
2022-12-26T20:43:12.467Z,0.25
2022-12-26T20:48:15.048Z,0.40
2022-12-26T20:53:17.586Z,0.17
2022-12-26T20:58:25.336Z,0.50
2022-12-26T21:03:29.081Z,0.32
2022-12-26T21:08:32.091Z,0.20
2022-12-26T21:13:36.419Z,0.22
2022-12-26T21:18:39.294Z,0.20
2022-12-26T21:23:42.115Z,0.30
2022-12-26T21:28:46.203Z,0.60
2022-12-26T21:38:52.924Z,0.20
2022-12-26T21:49:00.729Z,0.35
2022-12-26T21:54:18.663Z,0.30
2022-12-26T21:59:38.822Z,0.13
2022-12-26T22:04:43.241Z,0.40
2022-12-26T22:09:45.850Z,0.20
2022-12-26T22:14:48.356Z,0.20
2022-12-26T22:19:53.275Z,0.20
2022-12-26T22:24:56.212Z,0.20
2022-12-26T22:29:59.499Z,0.40
2022-12-26T22:35:03.709Z,0.32
2022-12-26T22:40:07.008Z,0.20
2022-12-26T22:45:10.023Z,0.40
2022-12-26T22:50:16.815Z,0.50
2022-12-26T22:55:20.893Z,0.32
2022-12-26T23:00:23.611Z,0.50
2022-12-26T23:05:37.183Z,0.47
2022-12-26T23:10:40.149Z,0.38
2022-12-26T23:15:49.044Z,0.33
2022-12-26T23:21:11.881Z,0.38
2022-12-26T23:26:14.618Z,0.32
2022-12-26T23:31:17.258Z,0.40
2022-12-26T23:36:21.263Z,0.43
2022-12-26T23:41:23.909Z,0.50
2022-12-26T23:46:26.512Z,0.32
2022-12-26T23:51:30.607Z,0.40
2022-12-26T23:56:33.244Z,0.50
